createdAt,value
2022-12-05T00:01:00.802Z,10.18
2022-12-05T00:03:28.293Z,10.93
2022-12-05T00:05:55.755Z,10.55
2022-12-05T00:08:23.113Z,11.90
2022-12-05T00:10:50.544Z,10.77
2022-12-05T00:13:17.955Z,9.30
2022-12-05T00:15:45.378Z,11.85
2022-12-05T00:18:12.817Z,10.52
2022-12-05T00:20:45.862Z,13.68
2022-12-05T00:23:13.291Z,9.18
2022-12-05T00:25:41.099Z,10.57
2022-12-05T00:28:08.642Z,9.18
2022-12-05T00:30:36.157Z,11.02
2022-12-05T00:33:03.602Z,9.52
2022-12-05T00:35:30.997Z,8.70
2022-12-05T00:37:58.432Z,10.63
2022-12-05T00:40:25.888Z,9.23
2022-12-05T00:42:53.333Z,9.15
2022-12-05T00:45:20.767Z,8.93
2022-12-05T00:47:48.206Z,9.50
2022-12-05T00:50:15.581Z,8.48
2022-12-05T00:52:43.088Z,9.98
2022-12-05T00:55:10.691Z,10.57
2022-12-05T00:57:38.106Z,8.25
2022-12-05T01:00:06.675Z,9.52
2022-12-05T01:02:34.117Z,8.80
2022-12-05T01:05:01.508Z,8.82
2022-12-05T01:07:29.056Z,8.73
2022-12-05T01:09:56.792Z,8.15
2022-12-05T01:12:24.503Z,8.75
2022-12-05T01:14:51.915Z,9.18
2022-12-05T01:17:19.373Z,9.55
2022-12-05T01:19:46.726Z,8.25
2022-12-05T01:22:14.307Z,8.23
2022-12-05T01:24:41.726Z,9.05
2022-12-05T01:27:09.183Z,7.60
2022-12-05T01:29:36.558Z,8.00
2022-12-05T01:32:04.377Z,7.50
2022-12-05T01:34:31.784Z,7.28
2022-12-05T01:36:59.240Z,8.55
2022-12-05T01:39:26.787Z,7.97
2022-12-05T01:41:54.178Z,9.93
2022-12-05T01:44:24.736Z,7.68
2022-12-05T01:46:52.662Z,8.02
2022-12-05T01:49:24.842Z,11.18
2022-12-05T01:51:57.089Z,7.43
2022-12-05T01:54:24.816Z,6.90
2022-12-05T01:56:57.078Z,6.97
2022-12-05T01:59:25.741Z,7.45
2022-12-05T02:01:53.124Z,7.65
2022-12-05T02:04:20.566Z,7.13
2022-12-05T02:06:48.232Z,7.25
2022-12-05T02:09:15.795Z,8.85
2022-12-05T02:11:47.645Z,8.20
2022-12-05T02:14:17.892Z,7.43
2022-12-05T02:16:51.646Z,5.65
2022-12-05T02:19:37.705Z,7.32
2022-12-05T02:22:27.853Z,9.20
2022-12-05T02:25:04.329Z,8.15
2022-12-05T02:27:50.593Z,9.00
2022-12-05T02:30:19.757Z,6.32
2022-12-05T02:33:00.491Z,6.20
2022-12-05T02:35:35.380Z,7.80
2022-12-05T02:38:14.471Z,7.10
2022-12-05T02:40:44.857Z,6.50
2022-12-05T02:43:17.141Z,6.57
2022-12-05T02:45:44.914Z,6.00
2022-12-05T02:48:13.813Z,6.35
2022-12-05T02:50:42.369Z,5.53
2022-12-05T02:53:12.215Z,6.05
2022-12-05T02:55:41.036Z,6.22
2022-12-05T02:58:12.417Z,4.55
2022-12-05T03:00:40.943Z,4.75
2022-12-05T03:03:13.348Z,5.32
2022-12-05T03:05:40.815Z,5.53
2022-12-05T03:08:11.410Z,4.65
2022-12-05T03:10:41.035Z,4.68
2022-12-05T03:13:12.590Z,5.15
2022-12-05T03:15:41.739Z,4.35
2022-12-05T03:18:19.441Z,4.28
2022-12-05T03:20:49.029Z,3.72
2022-12-05T03:23:19.213Z,5.88
2022-12-05T03:25:46.656Z,4.40
2022-12-05T03:28:34.298Z,4.20
2022-12-05T03:31:06.155Z,3.28
2022-12-05T03:33:38.050Z,3.90
2022-12-05T03:36:18.416Z,4.00
2022-12-05T03:38:52.449Z,4.60
2022-12-05T03:41:35.852Z,4.20
2022-12-05T03:44:09.954Z,5.28
2022-12-05T03:46:40.262Z,5.05
2022-12-05T03:49:10.786Z,5.00
2022-12-05T03:51:59.533Z,4.60
2022-12-05T03:54:28.505Z,5.78
2022-12-05T03:57:25.268Z,4.75
2022-12-05T03:59:55.504Z,5.20
2022-12-05T04:02:27.216Z,7.88
2022-12-05T04:05:02.587Z,4.32
2022-12-05T04:09:58.551Z,4.53
2022-12-05T04:12:28.485Z,4.30
2022-12-05T04:15:01.051Z,4.97
2022-12-05T04:17:32.186Z,4.22
2022-12-05T04:20:31.769Z,4.88
2022-12-05T04:22:59.474Z,5.20
2022-12-05T04:25:34.184Z,5.32
2022-12-05T04:28:21.233Z,4.78
2022-12-05T04:31:01.482Z,4.60
2022-12-05T04:33:44.343Z,4.70
2022-12-05T04:36:17.144Z,5.88
2022-12-05T04:38:44.759Z,4.75
2022-12-05T04:41:14.502Z,5.57
2022-12-05T04:43:43.124Z,6.07
2022-12-05T04:46:12.704Z,5.47
2022-12-05T04:48:41.618Z,5.10
2022-12-05T04:51:13.253Z,5.45
2022-12-05T04:53:42.294Z,5.95
2022-12-05T04:56:10.612Z,5.93
2022-12-05T04:58:38.069Z,7.78
2022-12-05T05:01:12.686Z,6.43
2022-12-05T05:03:45.944Z,6.55
2022-12-05T05:06:14.013Z,8.02
2022-12-05T05:08:59.649Z,5.18
2022-12-05T05:13:54.634Z,7.20
2022-12-05T05:16:26.506Z,5.38
2022-12-05T05:18:54.456Z,5.70
2022-12-05T05:21:21.834Z,5.57
2022-12-05T05:23:49.292Z,5.75
2022-12-05T05:26:17.002Z,5.30
2022-12-05T05:28:44.422Z,5.93
2022-12-05T05:31:12.126Z,6.30
2022-12-05T05:33:39.612Z,6.35
2022-12-05T05:36:11.646Z,6.95
2022-12-05T05:38:40.158Z,5.70
2022-12-05T05:41:12.544Z,6.50
2022-12-05T05:43:40.582Z,7.22
2022-12-05T05:46:08.128Z,7.43
2022-12-05T05:48:35.669Z,8.18
2022-12-05T05:51:04.053Z,8.52
2022-12-05T05:53:31.567Z,8.85
2022-12-05T05:55:59.078Z,8.35
2022-12-05T05:58:26.488Z,8.27
2022-12-05T06:00:53.908Z,8.30
2022-12-05T06:03:21.482Z,7.90
2022-12-05T06:05:57.645Z,8.18
2022-12-05T06:08:25.344Z,7.53
2022-12-05T06:10:52.775Z,6.85
2022-12-05T06:13:20.251Z,8.18
2022-12-05T06:15:47.627Z,8.00
2022-12-05T06:18:15.110Z,8.43
2022-12-05T06:20:42.649Z,7.35
2022-12-05T06:23:10.180Z,6.97
2022-12-05T06:25:37.545Z,8.10
2022-12-05T06:28:05.085Z,7.82
2022-12-05T06:30:32.480Z,7.65
2022-12-05T06:32:59.920Z,7.22
2022-12-05T06:35:27.355Z,6.40
2022-12-05T06:37:54.766Z,7.30
2022-12-05T06:40:22.335Z,8.25
2022-12-05T06:42:49.729Z,8.30
2022-12-05T06:45:17.154Z,8.38
2022-12-05T06:47:44.657Z,6.85
2022-12-05T06:50:12.020Z,7.90
2022-12-05T06:52:39.732Z,7.22
2022-12-05T06:55:07.505Z,7.70
2022-12-05T06:57:35.015Z,7.82
2022-12-05T07:00:21.468Z,8.88
2022-12-05T07:02:51.133Z,7.30
2022-12-05T07:05:18.715Z,7.00
2022-12-05T07:07:46.458Z,8.25
2022-12-05T07:10:13.960Z,8.32
2022-12-05T07:12:41.339Z,8.18
2022-12-05T07:15:08.994Z,7.53
2022-12-05T07:17:37.252Z,8.93
2022-12-05T07:20:04.986Z,8.57
2022-12-05T07:22:32.377Z,10.05
2022-12-05T07:24:59.868Z,9.27
2022-12-05T07:27:28.388Z,8.85
2022-12-05T07:29:56.696Z,9.07
2022-12-05T07:32:24.500Z,10.52
2022-12-05T07:34:55.315Z,9.18
2022-12-05T07:37:23.874Z,10.43
2022-12-05T07:39:52.393Z,10.10
2022-12-05T07:42:19.950Z,9.88
2022-12-05T07:44:47.326Z,8.65
2022-12-05T07:47:14.856Z,8.65
2022-12-05T07:49:42.304Z,9.82
2022-12-05T07:52:10.055Z,10.07
2022-12-05T07:54:37.520Z,11.07
2022-12-05T07:57:05.094Z,9.90
2022-12-05T07:59:32.433Z,8.98
2022-12-05T08:01:59.977Z,7.88
2022-12-05T08:04:27.446Z,9.63
2022-12-05T08:06:54.880Z,9.02
2022-12-05T08:09:22.291Z,11.07
2022-12-05T08:11:52.530Z,10.57
2022-12-05T08:14:20.529Z,11.10
2022-12-05T08:16:48.014Z,9.60
2022-12-05T08:19:17.234Z,9.90
2022-12-05T08:21:44.762Z,12.07
2022-12-05T08:24:12.512Z,14.77
2022-12-05T08:26:40.513Z,16.02
2022-12-05T08:29:12.086Z,8.30
2022-12-05T08:31:49.705Z,12.82
2022-12-05T08:34:18.277Z,11.57
2022-12-05T08:36:46.181Z,10.38
2022-12-05T08:39:16.090Z,8.63
2022-12-05T08:41:47.467Z,8.82
2022-12-05T08:44:17.063Z,10.88
2022-12-05T08:46:45.371Z,8.85
2022-12-05T08:49:12.993Z,9.52
2022-12-05T08:51:41.197Z,8.95
2022-12-05T08:54:08.627Z,8.43
2022-12-05T08:56:36.109Z,10.68
2022-12-05T08:59:06.013Z,9.30
2022-12-05T09:01:34.019Z,9.90
2022-12-05T09:04:02.518Z,6.53
2022-12-05T09:06:30.484Z,11.23
2022-12-05T09:08:59.030Z,10.75
2022-12-05T09:11:28.134Z,10.48
2022-12-05T09:13:57.018Z,10.25
2022-12-05T09:16:26.250Z,8.98
2022-12-05T09:18:53.679Z,7.15
2022-12-05T09:21:22.426Z,8.65
2022-12-05T09:23:49.960Z,7.93
2022-12-05T09:26:19.067Z,9.23
2022-12-05T09:28:46.532Z,10.38
2022-12-05T09:31:15.304Z,8.40
2022-12-05T09:33:42.923Z,7.93
2022-12-05T09:36:14.072Z,10.23
2022-12-05T09:38:41.609Z,13.40
2022-12-05T09:41:12.162Z,12.65
2022-12-05T09:43:47.781Z,14.60
2022-12-05T09:46:35.358Z,11.65
2022-12-05T09:49:03.630Z,12.75
2022-12-05T09:51:31.665Z,13.35
2022-12-05T09:53:59.171Z,8.50
2022-12-05T09:56:28.276Z,9.13
2022-12-05T09:58:56.441Z,13.63
2022-12-05T10:01:39.034Z,13.07
2022-12-05T10:04:06.656Z,10.85
2022-12-05T10:06:41.428Z,9.82
2022-12-05T10:09:22.567Z,13.93
2022-12-05T10:11:49.971Z,11.45
2022-12-05T10:14:17.337Z,9.20
2022-12-05T10:16:50.462Z,7.93
2022-12-05T10:19:25.372Z,6.93
2022-12-05T10:21:58.878Z,8.60
2022-12-05T10:24:39.637Z,8.60
2022-12-05T10:27:08.670Z,6.47
2022-12-05T10:29:36.097Z,6.45
2022-12-05T10:32:08.478Z,5.78
2022-12-05T10:34:39.890Z,5.45
2022-12-05T10:37:18.204Z,7.85
2022-12-05T10:39:46.286Z,5.90
2022-12-05T10:42:15.983Z,6.85
2022-12-05T10:44:43.727Z,6.32
2022-12-05T10:47:11.919Z,6.97
2022-12-05T10:49:39.659Z,6.65
2022-12-05T10:52:07.305Z,5.78
2022-12-05T10:54:40.482Z,8.15
2022-12-05T10:57:23.231Z,5.57
2022-12-05T10:59:50.689Z,8.20
2022-12-05T11:02:22.898Z,6.85
2022-12-05T11:04:50.562Z,6.68
2022-12-05T11:07:25.713Z,8.00
2022-12-05T11:09:53.210Z,6.88
2022-12-05T11:12:22.097Z,5.90
2022-12-05T11:15:08.157Z,5.85
2022-12-05T11:17:37.110Z,7.78
2022-12-05T11:20:25.065Z,7.85
2022-12-05T11:22:56.524Z,6.47
2022-12-05T11:25:27.009Z,8.77
2022-12-05T11:27:58.377Z,8.90
2022-12-05T11:30:29.468Z,12.68
2022-12-05T11:33:32.829Z,10.30
2022-12-05T11:36:19.525Z,9.10
2022-12-05T11:38:47.094Z,9.90
2022-12-05T11:41:18.523Z,10.70
2022-12-05T11:43:45.979Z,8.35
2022-12-05T11:46:16.395Z,15.90
2022-12-05T11:48:43.913Z,12.57
2022-12-05T11:51:23.578Z,11.68
2022-12-05T11:54:11.197Z,7.82
2022-12-05T11:56:39.542Z,8.60
2022-12-05T11:59:10.231Z,8.98
2022-12-05T12:01:37.679Z,8.05
2022-12-05T12:04:37.578Z,7.00
2022-12-05T12:07:17.021Z,7.53
2022-12-05T12:10:08.319Z,8.55
2022-12-05T12:12:46.923Z,7.47
2022-12-05T12:15:17.567Z,9.27
2022-12-05T12:17:55.407Z,19.00
2022-12-05T12:20:29.198Z,12.18
2022-12-05T12:23:22.866Z,19.45
2022-12-05T12:26:04.377Z,11.40
2022-12-05T12:28:38.086Z,11.82
2022-12-05T12:31:25.728Z,12.30
2022-12-05T12:34:16.250Z,11.95
2022-12-05T12:36:49.569Z,10.40
2022-12-05T12:39:30.824Z,9.98
2022-12-05T12:41:58.376Z,9.70
2022-12-05T12:44:50.804Z,10.65
2022-12-05T12:47:24.238Z,8.98
2022-12-05T12:50:09.983Z,10.05
2022-12-05T12:55:17.064Z,9.77
2022-12-05T12:58:11.028Z,9.57
2022-12-05T13:00:38.630Z,12.38
2022-12-05T13:03:06.239Z,11.80
2022-12-05T13:05:33.696Z,14.52
2022-12-05T13:08:01.291Z,16.15
2022-12-05T13:10:39.497Z,15.95
2022-12-05T13:13:07.536Z,14.00
2022-12-05T13:15:47.422Z,11.60
2022-12-05T13:18:19.207Z,12.10
2022-12-05T13:20:48.769Z,12.07
2022-12-05T13:23:18.476Z,16.08
2022-12-05T13:25:46.877Z,11.60
2022-12-05T13:28:25.915Z,11.05
2022-12-05T13:31:02.596Z,16.38
2022-12-05T13:33:50.538Z,11.77
2022-12-05T13:36:38.785Z,15.20
2022-12-05T13:39:45.014Z,15.82
2022-12-05T13:42:33.271Z,14.82
2022-12-05T13:45:09.446Z,17.52
2022-12-05T13:47:46.587Z,20.33
2022-12-05T13:50:16.264Z,24.98
2022-12-05T13:52:43.621Z,19.75
2022-12-05T13:55:23.517Z,18.52
2022-12-05T13:57:52.926Z,23.23
2022-12-05T14:00:26.338Z,23.40
2022-12-05T14:03:04.851Z,15.93
2022-12-05T14:05:38.368Z,13.68
2022-12-05T14:08:24.653Z,16.80
2022-12-05T14:10:52.128Z,19.48
2022-12-05T14:13:19.516Z,18.42
2022-12-05T14:15:48.943Z,17.38
2022-12-05T14:18:22.314Z,18.45
2022-12-05T14:20:49.819Z,30.50
2022-12-05T14:23:17.226Z,26.85
2022-12-05T14:26:08.693Z,23.08
2022-12-05T14:28:45.654Z,19.20
2022-12-05T14:31:13.147Z,17.92
2022-12-05T14:33:40.663Z,21.60
2022-12-05T14:36:14.346Z,20.42
2022-12-05T14:38:42.918Z,24.95
2022-12-05T14:41:13.342Z,26.15
2022-12-05T14:43:41.729Z,40.47
2022-12-05T14:46:16.125Z,53.70
2022-12-05T14:48:48.721Z,85.57
2022-12-05T14:51:31.248Z,79.53
2022-12-05T14:54:07.051Z,80.80
2022-12-05T14:56:40.570Z,27.83
2022-12-05T14:59:28.959Z,20.27
2022-12-05T15:01:59.030Z,32.67
2022-12-05T15:04:36.459Z,27.10
2022-12-05T15:07:05.772Z,35.70
2022-12-05T15:09:48.909Z,45.95
2022-12-05T15:12:20.411Z,29.98
2022-12-05T15:14:53.317Z,26.13
2022-12-05T15:17:23.787Z,19.55
2022-12-05T15:20:15.376Z,23.30
2022-12-05T15:22:42.899Z,20.38
2022-12-05T15:25:36.624Z,22.48
2022-12-05T15:28:06.011Z,18.70
2022-12-05T15:30:35.653Z,20.20
2022-12-05T15:33:03.335Z,25.48
2022-12-05T15:35:32.995Z,27.40
2022-12-05T15:38:10.649Z,19.88
2022-12-05T15:40:38.444Z,22.20
2022-12-05T15:43:24.482Z,22.70
2022-12-05T15:45:52.043Z,21.00
2022-12-05T15:48:22.872Z,21.55
2022-12-05T15:50:52.057Z,23.27
2022-12-05T15:53:38.006Z,25.38
2022-12-05T15:56:16.408Z,26.13
2022-12-05T15:58:50.028Z,24.30
2022-12-05T16:01:19.992Z,32.78
2022-12-05T16:03:51.091Z,33.58
2022-12-05T16:06:21.773Z,21.15
2022-12-05T16:08:50.042Z,20.65
2022-12-05T16:11:17.894Z,22.30
2022-12-05T16:14:04.050Z,23.67
2022-12-05T16:16:36.734Z,25.60
2022-12-05T16:19:14.552Z,23.63
2022-12-05T16:21:46.854Z,29.25
2022-12-05T16:24:17.196Z,27.50
2022-12-05T16:26:45.290Z,30.02
2022-12-05T16:29:29.384Z,25.30
2022-12-05T16:31:57.703Z,24.70
2022-12-05T16:34:26.225Z,22.95
2022-12-05T16:36:55.019Z,24.08
2022-12-05T16:39:23.136Z,28.92
2022-12-05T16:41:51.366Z,22.95
2022-12-05T16:44:28.237Z,21.15
2022-12-05T16:46:56.861Z,21.60
2022-12-05T16:49:42.800Z,21.83
2022-12-05T16:52:14.743Z,24.42
2022-12-05T16:54:43.190Z,28.02
2022-12-05T16:57:13.038Z,32.13
2022-12-05T16:59:43.022Z,38.97
2022-12-05T17:02:14.770Z,28.08
2022-12-05T17:04:42.582Z,30.90
2022-12-05T17:07:10.233Z,34.97
2022-12-05T17:09:37.944Z,21.85
2022-12-05T17:12:12.669Z,21.83
2022-12-05T17:14:40.327Z,24.33
2022-12-05T17:17:15.451Z,22.77
2022-12-05T17:19:42.941Z,21.55
2022-12-05T17:22:11.690Z,21.90
2022-12-05T17:24:39.102Z,27.05
2022-12-05T17:27:07.242Z,25.73
2022-12-05T17:29:35.984Z,25.80
2022-12-05T17:32:03.991Z,20.48
2022-12-05T17:34:31.598Z,22.88
2022-12-05T17:37:00.279Z,22.27
2022-12-05T17:39:28.758Z,21.38
2022-12-05T17:41:56.567Z,23.77
2022-12-05T17:44:24.461Z,28.02
2022-12-05T17:46:51.922Z,26.80
2022-12-05T17:49:20.115Z,26.40
2022-12-05T17:52:20.034Z,23.88
2022-12-05T17:54:35.560Z,25.08
2022-12-05T17:57:02.926Z,23.02
2022-12-05T17:59:30.459Z,22.95
2022-12-05T18:01:57.974Z,25.20
2022-12-05T18:04:25.549Z,25.38
2022-12-05T18:06:52.936Z,24.55
2022-12-05T18:09:20.518Z,25.08
2022-12-05T18:11:47.927Z,23.63
2022-12-05T18:14:15.454Z,25.23
2022-12-05T18:16:43.169Z,26.05
2022-12-05T18:19:10.884Z,29.23
2022-12-05T18:21:38.723Z,26.98
2022-12-05T18:24:06.244Z,27.30
2022-12-05T18:26:33.672Z,25.40
2022-12-05T18:29:01.051Z,24.17
2022-12-05T18:31:29.302Z,27.23
2022-12-05T18:33:56.731Z,23.60
2022-12-05T18:36:24.126Z,24.13
2022-12-05T18:38:52.302Z,23.80
2022-12-05T18:41:20.403Z,26.40
2022-12-05T18:43:48.013Z,26.70
2022-12-05T18:46:15.464Z,25.33
2022-12-05T18:48:47.192Z,26.65
2022-12-05T18:51:15.110Z,25.38
2022-12-05T18:53:42.892Z,25.13
2022-12-05T18:56:27.395Z,26.58
2022-12-05T18:59:05.229Z,28.70
2022-12-05T19:01:34.039Z,29.35
2022-12-05T19:04:02.360Z,26.17
2022-12-05T19:06:31.503Z,26.60
2022-12-05T19:09:01.060Z,28.15
2022-12-05T19:11:28.930Z,26.80
2022-12-05T19:13:57.385Z,29.17
2022-12-05T19:16:25.354Z,28.52
2022-12-05T19:18:57.182Z,28.70
2022-12-05T19:21:25.819Z,26.08
2022-12-05T19:23:53.628Z,27.95
2022-12-05T19:26:21.617Z,26.33
2022-12-05T19:28:49.103Z,27.30
2022-12-05T19:31:18.551Z,27.80
2022-12-05T19:33:47.521Z,27.98
2022-12-05T19:36:16.205Z,26.95
2022-12-05T19:38:44.784Z,32.03
2022-12-05T19:41:13.377Z,28.35
2022-12-05T19:43:41.136Z,27.67
2022-12-05T19:46:09.565Z,24.75
2022-12-05T19:48:37.053Z,28.35
2022-12-05T19:51:04.552Z,26.85
2022-12-05T19:53:33.077Z,30.00
2022-12-05T19:56:01.734Z,29.65
2022-12-05T19:58:29.466Z,30.10
2022-12-05T20:00:57.064Z,31.95
2022-12-05T20:03:24.548Z,30.63
2022-12-05T20:05:58.684Z,30.60
2022-12-05T20:08:26.435Z,28.85
2022-12-05T20:10:54.099Z,28.35
2022-12-05T20:13:45.988Z,31.10
2022-12-05T20:16:10.688Z,32.25
2022-12-05T20:18:39.999Z,33.92
2022-12-05T20:21:14.446Z,33.95
2022-12-05T20:23:42.311Z,30.60
2022-12-05T20:26:11.071Z,34.35
2022-12-05T20:28:38.921Z,30.27
2022-12-05T20:31:07.834Z,28.75
2022-12-05T20:33:35.668Z,32.47
2022-12-05T20:36:07.676Z,42.33
2022-12-05T20:38:35.661Z,33.90
2022-12-05T20:41:04.042Z,28.40
2022-12-05T20:43:31.790Z,34.15
2022-12-05T20:46:04.613Z,34.50
2022-12-05T20:48:32.159Z,31.92
2022-12-05T20:51:09.686Z,35.10
2022-12-05T20:53:41.203Z,33.47
2022-12-05T20:56:12.790Z,33.65
2022-12-05T20:58:40.881Z,35.20
2022-12-05T21:01:10.003Z,30.23
2022-12-05T21:03:40.109Z,29.75
2022-12-05T21:06:08.633Z,32.22
2022-12-05T21:08:36.014Z,29.33
2022-12-05T21:11:03.434Z,32.40
2022-12-05T21:13:32.347Z,32.92
2022-12-05T21:16:02.563Z,30.73
2022-12-05T21:18:30.541Z,32.05
2022-12-05T21:21:02.409Z,31.00
2022-12-05T21:23:30.330Z,31.85
2022-12-05T21:26:01.559Z,30.02
2022-12-05T21:28:30.750Z,29.23
2022-12-05T21:31:07.175Z,33.33
2022-12-05T21:33:34.713Z,31.52
2022-12-05T21:36:02.339Z,29.52
2022-12-05T21:38:29.769Z,29.02
2022-12-05T21:40:57.183Z,30.25
2022-12-05T21:43:24.648Z,33.22
2022-12-05T21:45:56.104Z,32.28
2022-12-05T21:48:24.569Z,32.40
2022-12-05T21:50:52.627Z,29.60
2022-12-05T21:53:20.820Z,32.42
2022-12-05T21:55:48.519Z,27.38
2022-12-05T21:58:16.059Z,27.38
2022-12-05T22:00:43.464Z,33.08
2022-12-05T22:03:15.040Z,32.58
2022-12-05T22:05:43.831Z,34.53
2022-12-05T22:08:11.873Z,33.67
2022-12-05T22:10:39.574Z,29.40
2022-12-05T22:13:06.943Z,29.80
2022-12-05T22:15:34.674Z,31.33
2022-12-05T22:18:02.079Z,28.92
2022-12-05T22:20:29.590Z,27.48
2022-12-05T22:22:56.986Z,31.63
2022-12-05T22:25:24.434Z,35.85
2022-12-05T22:27:51.801Z,31.40
2022-12-05T22:30:19.686Z,29.48
2022-12-05T22:32:47.157Z,29.52
2022-12-05T22:35:14.775Z,28.77
2022-12-05T22:37:42.207Z,31.35
2022-12-05T22:40:10.104Z,29.98
2022-12-05T22:42:37.560Z,29.60
2022-12-05T22:45:05.151Z,30.15
2022-12-05T22:47:32.705Z,30.05
2022-12-05T22:50:00.294Z,30.85
2022-12-05T22:52:27.944Z,30.40
2022-12-05T22:54:55.303Z,29.20
2022-12-05T22:57:22.777Z,28.15
2022-12-05T22:59:50.122Z,29.75
2022-12-05T23:02:17.596Z,30.00
2022-12-05T23:04:44.953Z,32.88
2022-12-05T23:07:12.445Z,30.35
2022-12-05T23:09:39.810Z,29.17
2022-12-05T23:12:07.415Z,31.02
2022-12-05T23:14:34.777Z,29.08
2022-12-05T23:17:02.201Z,28.17
2022-12-05T23:19:29.569Z,28.67
2022-12-05T23:21:57.030Z,27.85
2022-12-05T23:24:24.446Z,27.98
2022-12-05T23:26:51.893Z,28.13
2022-12-05T23:29:19.297Z,29.70
2022-12-05T23:31:46.892Z,28.88
2022-12-05T23:34:14.318Z,31.05
2022-12-05T23:36:41.912Z,29.52
2022-12-05T23:39:09.381Z,26.98
2022-12-05T23:41:36.917Z,29.85
2022-12-05T23:44:04.661Z,30.70
2022-12-05T23:46:32.198Z,30.15
2022-12-05T23:48:59.696Z,30.83
2022-12-05T23:51:28.706Z,32.60
2022-12-05T23:53:57.617Z,29.73
2022-12-05T23:56:26.392Z,31.67
2022-12-05T23:58:54.390Z,33.35
